Bugtown, Indiana
Current Conditions -  °F | °C
As of 1:35 PM on Tuesday 21 Oct 2014 (Local Time) from KCUL Reporting Station
Scattered Clouds Scattered Clouds  
Wind Chill: 67°   Ceiling: Unl
Heat Index: 67°   Visibility: 10mi
Dew Point: 47°   Wind: 7mph
Humidity: 49%   Direction: 350°N
Pressure: 30.09"   Gusts: 16mph
Location:  38.1775°N, 87.8268°W
Report Text: KCUL 211835Z AUTO 35006G14KT 10SM SCT046 19/08 A3009 RMK AO2 T01940083
Loading
Personal Weather Stations






























Interactive Weather Map
Tropical Storm Tracking
New forecast layout! Learn more

10-Day Weather Forecast

Advertisements
Track Severe Weather on mobile